createdAt,value
2023-05-25T00:01:37.205Z,4.43
2023-05-25T00:04:04.230Z,4.47
2023-05-25T00:06:32.176Z,4.45
2023-05-25T00:08:58.624Z,4.65
2023-05-25T00:11:26.459Z,3.97
2023-05-25T00:13:53.040Z,4.20
2023-05-25T00:16:19.687Z,4.20
2023-05-25T00:18:48.376Z,4.03
2023-05-25T00:21:15.639Z,4.55
2023-05-25T00:23:44.846Z,4.00
2023-05-25T00:26:11.240Z,4.75
2023-05-25T00:28:37.650Z,4.80
2023-05-25T00:31:04.091Z,4.75
2023-05-25T00:33:30.897Z,4.10
2023-05-25T00:35:58.448Z,5.30
2023-05-25T00:38:24.961Z,5.28
2023-05-25T00:40:55.315Z,4.63
2023-05-25T00:43:21.811Z,5.10
2023-05-25T00:45:48.361Z,4.38
2023-05-25T00:48:15.917Z,4.43
2023-05-25T00:50:43.442Z,4.50
2023-05-25T00:53:11.579Z,5.38
2023-05-25T00:56:18.093Z,5.00
2023-05-25T00:58:44.780Z,5.13
2023-05-25T01:01:15.106Z,4.90
2023-05-25T01:03:45.635Z,5.07
2023-05-25T01:06:15.193Z,4.82
2023-05-25T01:08:43.050Z,5.18
2023-05-25T01:11:11.632Z,4.70
2023-05-25T01:13:38.686Z,4.95
2023-05-25T01:16:06.468Z,4.88
2023-05-25T01:18:33.714Z,4.80
2023-05-25T01:21:13.220Z,5.30
2023-05-25T01:23:48.121Z,5.22
2023-05-25T01:26:16.790Z,5.28
2023-05-25T01:28:48.151Z,4.97
2023-05-25T01:31:15.877Z,5.38
2023-05-25T01:33:42.966Z,5.38
2023-05-25T01:36:09.441Z,5.32
2023-05-25T01:38:37.072Z,5.75
2023-05-25T01:41:03.442Z,5.00
2023-05-25T01:43:29.865Z,5.43
2023-05-25T01:46:02.798Z,5.40
2023-05-25T01:48:41.401Z,5.22
2023-05-25T01:51:17.167Z,5.65
2023-05-25T01:53:46.978Z,5.95
2023-05-25T01:56:13.932Z,5.65
2023-05-25T01:58:44.763Z,5.15
2023-05-25T02:01:16.337Z,5.70
2023-05-25T02:03:43.013Z,5.03
2023-05-25T02:06:09.526Z,5.60
2023-05-25T02:08:36.356Z,5.60
2023-05-25T02:11:03.353Z,5.28
2023-05-25T02:13:29.792Z,5.28
2023-05-25T02:15:56.387Z,5.68
2023-05-25T02:18:23.651Z,5.28
2023-05-25T02:20:50.086Z,5.40
2023-05-25T02:23:18.511Z,5.50
2023-05-25T02:25:45.131Z,5.82
2023-05-25T02:28:11.753Z,6.45
2023-05-25T02:30:38.873Z,6.05
2023-05-25T02:33:05.397Z,6.10
2023-05-25T02:35:31.830Z,5.97
2023-05-25T02:37:58.207Z,5.97
2023-05-25T02:40:24.661Z,6.30
2023-05-25T02:42:51.100Z,5.75
2023-05-25T02:45:17.563Z,5.85
2023-05-25T02:47:44.008Z,5.43
2023-05-25T02:50:10.883Z,4.95
2023-05-25T02:52:37.363Z,5.75
2023-05-25T02:55:04.041Z,5.68
2023-05-25T02:57:30.563Z,5.75
2023-05-25T02:59:56.977Z,5.18
2023-05-25T03:02:25.664Z,5.32
2023-05-25T03:04:53.687Z,5.43
2023-05-25T03:07:25.450Z,5.70
2023-05-25T03:09:52.277Z,5.47
2023-05-25T03:12:18.676Z,6.00
2023-05-25T03:14:45.082Z,5.20
2023-05-25T03:17:11.563Z,6.00
2023-05-25T03:19:37.982Z,5.70
2023-05-25T03:22:04.749Z,4.97
2023-05-25T03:24:31.139Z,5.20
2023-05-25T03:26:57.507Z,5.38
2023-05-25T03:29:23.918Z,5.45
2023-05-25T03:31:50.723Z,5.00
2023-05-25T03:34:17.578Z,5.05
2023-05-25T03:36:45.941Z,5.07
2023-05-25T03:39:12.428Z,4.78
2023-05-25T03:41:38.845Z,5.57
2023-05-25T03:44:05.383Z,5.32
2023-05-25T03:46:31.852Z,4.85
2023-05-25T03:48:58.291Z,4.97
2023-05-25T03:51:24.902Z,5.25
2023-05-25T03:53:51.284Z,5.70
2023-05-25T03:56:17.647Z,4.70
2023-05-25T03:58:44.083Z,5.07
2023-05-25T04:01:11.286Z,5.50
2023-05-25T04:03:37.863Z,4.50
2023-05-25T04:06:04.569Z,5.10
2023-05-25T04:08:30.965Z,5.30
2023-05-25T04:10:57.427Z,4.50
2023-05-25T04:13:23.937Z,5.10
2023-05-25T04:15:50.993Z,4.70
2023-05-25T04:18:17.467Z,4.72
2023-05-25T04:20:43.871Z,4.53
2023-05-25T04:23:10.464Z,4.40
2023-05-25T04:25:37.561Z,4.22
2023-05-25T04:28:04.016Z,4.53
2023-05-25T04:30:31.392Z,5.28
2023-05-25T04:33:02.609Z,5.22
2023-05-25T04:35:29.216Z,4.63
2023-05-25T04:37:56.728Z,4.95
2023-05-25T04:40:23.175Z,5.60
2023-05-25T04:42:49.622Z,5.03
2023-05-25T04:45:17.215Z,5.78
2023-05-25T04:47:43.691Z,5.40
2023-05-25T04:50:10.943Z,5.15
2023-05-25T04:52:37.402Z,4.85
2023-05-25T04:55:03.927Z,5.07
2023-05-25T04:57:31.500Z,4.78
2023-05-25T04:59:58.565Z,5.40
2023-05-25T05:02:25.664Z,5.03
2023-05-25T05:04:53.652Z,4.57
2023-05-25T05:07:23.407Z,5.22
2023-05-25T05:09:49.801Z,4.88
2023-05-25T05:12:16.195Z,4.63
2023-05-25T05:14:42.581Z,4.53
2023-05-25T05:17:08.982Z,4.78
2023-05-25T05:19:35.757Z,4.20
2023-05-25T05:22:02.177Z,4.28
2023-05-25T05:24:28.591Z,4.47
2023-05-25T05:26:58.997Z,5.13
2023-05-25T05:29:26.740Z,4.80
2023-05-25T05:31:54.190Z,4.93
2023-05-25T05:34:21.131Z,4.18
2023-05-25T05:36:57.438Z,5.03
2023-05-25T05:39:24.864Z,4.28
2023-05-25T05:41:51.251Z,4.60
2023-05-25T05:44:18.373Z,5.22
2023-05-25T05:46:44.837Z,4.95
2023-05-25T05:49:11.231Z,4.75
2023-05-25T05:51:37.667Z,4.93
2023-05-25T05:54:04.601Z,4.80
2023-05-25T05:56:31.293Z,4.70
2023-05-25T05:58:58.171Z,4.22
2023-05-25T06:01:25.444Z,4.38
2023-05-25T06:03:54.163Z,4.45
2023-05-25T06:06:21.589Z,4.65
2023-05-25T06:08:48.035Z,4.53
2023-05-25T06:11:14.537Z,4.63
2023-05-25T06:13:40.992Z,4.30
2023-05-25T06:16:07.495Z,4.32
2023-05-25T06:18:33.917Z,4.63
2023-05-25T06:21:01.337Z,4.05
2023-05-25T06:23:27.791Z,4.40
2023-05-25T06:25:55.195Z,4.68
2023-05-25T06:28:21.613Z,4.60
2023-05-25T06:30:48.368Z,4.50
2023-05-25T06:33:14.814Z,4.53
2023-05-25T06:35:41.944Z,4.72
2023-05-25T06:38:08.655Z,4.13
2023-05-25T06:40:35.075Z,4.80
2023-05-25T06:43:01.462Z,4.70
2023-05-25T06:45:27.869Z,4.25
2023-05-25T06:47:54.520Z,4.38
2023-05-25T06:50:21.559Z,4.68
2023-05-25T06:52:47.971Z,4.45
2023-05-25T06:55:14.380Z,5.28
2023-05-25T06:57:41.233Z,4.35
2023-05-25T07:00:11.968Z,4.22
2023-05-25T07:02:38.919Z,4.65
2023-05-25T07:05:06.122Z,4.70
2023-05-25T07:07:33.023Z,4.75
2023-05-25T07:09:59.517Z,4.60
2023-05-25T07:12:25.924Z,5.18
2023-05-25T07:14:52.338Z,5.00
2023-05-25T07:17:18.788Z,5.97
2023-05-25T07:19:45.222Z,4.80
2023-05-25T07:22:11.732Z,4.95
2023-05-25T07:24:38.248Z,5.13
2023-05-25T07:27:04.941Z,4.53
2023-05-25T07:29:31.439Z,5.72
2023-05-25T07:31:57.846Z,5.53
2023-05-25T07:34:25.834Z,4.97
2023-05-25T07:36:54.187Z,5.18
2023-05-25T07:39:20.598Z,4.68
2023-05-25T07:41:47.034Z,4.88
2023-05-25T07:44:13.440Z,5.05
2023-05-25T07:46:39.919Z,4.28
2023-05-25T07:49:11.858Z,4.05
2023-05-25T07:51:38.264Z,4.32
2023-05-25T07:54:04.850Z,4.38
2023-05-25T07:56:31.322Z,3.75
2023-05-25T07:58:59.891Z,4.22
2023-05-25T08:01:27.165Z,3.95
2023-05-25T08:03:53.767Z,3.85
2023-05-25T08:06:20.627Z,3.78
2023-05-25T08:08:47.371Z,3.42
2023-05-25T08:11:15.095Z,3.67
2023-05-25T08:13:41.798Z,3.70
2023-05-25T08:16:09.110Z,3.75
2023-05-25T08:18:35.783Z,4.15
2023-05-25T08:21:02.196Z,3.58
2023-05-25T08:23:28.633Z,3.92
2023-05-25T08:25:55.099Z,3.40
2023-05-25T08:28:22.097Z,3.75
2023-05-25T08:30:48.746Z,3.55
2023-05-25T08:33:15.202Z,3.30
2023-05-25T08:35:43.087Z,3.60
2023-05-25T08:38:09.729Z,3.78
2023-05-25T08:40:36.190Z,4.03
2023-05-25T08:43:03.811Z,3.47
2023-05-25T08:45:49.615Z,3.88
2023-05-25T08:48:35.664Z,3.78
2023-05-25T08:51:10.263Z,4.13
2023-05-25T08:53:39.839Z,3.70
2023-05-25T08:56:19.871Z,3.83
2023-05-25T08:58:53.089Z,3.53
2023-05-25T09:01:21.129Z,3.67
2023-05-25T09:03:49.977Z,3.70
2023-05-25T09:06:17.472Z,3.10
2023-05-25T09:08:45.062Z,3.95
2023-05-25T09:11:16.273Z,3.47
2023-05-25T09:13:43.457Z,3.55
2023-05-25T09:16:11.050Z,3.40
2023-05-25T09:18:37.551Z,3.38
2023-05-25T09:21:04.222Z,4.00
2023-05-25T09:23:30.922Z,3.67
2023-05-25T09:25:57.862Z,3.65
2023-05-25T09:28:27.383Z,3.70
2023-05-25T09:30:54.647Z,3.42
2023-05-25T09:33:21.583Z,3.88
2023-05-25T09:35:48.606Z,4.03
2023-05-25T09:38:16.445Z,3.42
2023-05-25T09:40:43.707Z,3.60
2023-05-25T09:43:11.799Z,3.65
2023-05-25T09:45:38.525Z,3.35
2023-05-25T09:48:07.267Z,3.92
2023-05-25T09:50:33.822Z,3.60
2023-05-25T09:53:01.020Z,3.58
2023-05-25T09:55:36.905Z,3.25
2023-05-25T09:58:11.052Z,3.08
2023-05-25T10:00:37.632Z,3.08
2023-05-25T10:03:04.224Z,3.65
2023-05-25T10:05:32.844Z,3.80
2023-05-25T10:08:00.425Z,3.80
2023-05-25T10:10:26.951Z,3.80
2023-05-25T10:12:53.994Z,3.80
2023-05-25T10:15:22.263Z,3.25
2023-05-25T10:17:54.684Z,3.15
2023-05-25T10:20:23.478Z,3.53
2023-05-25T10:23:06.000Z,3.20
2023-05-25T10:25:41.891Z,3.47
2023-05-25T10:28:15.231Z,3.40
2023-05-25T10:30:42.994Z,4.15
2023-05-25T10:33:10.353Z,3.50
2023-05-25T10:35:56.242Z,3.80
2023-05-25T10:38:26.930Z,3.00
2023-05-25T10:40:54.479Z,3.30
2023-05-25T10:43:21.309Z,3.88
2023-05-25T10:45:48.324Z,3.15
2023-05-25T10:48:15.915Z,3.30
2023-05-25T10:50:42.470Z,3.40
2023-05-25T10:53:12.565Z,2.80
2023-05-25T10:56:09.892Z,3.20
2023-05-25T10:58:41.302Z,3.40
2023-05-25T11:01:11.005Z,3.45
2023-05-25T11:03:57.348Z,3.33
2023-05-25T11:06:46.351Z,3.70
2023-05-25T11:09:27.458Z,3.50
2023-05-25T11:11:55.569Z,4.03
2023-05-25T11:14:29.729Z,3.20
2023-05-25T11:19:44.445Z,3.50
2023-05-25T11:22:20.265Z,3.50
2023-05-25T11:24:47.882Z,3.55
2023-05-25T11:27:14.287Z,3.47
2023-05-25T11:29:41.475Z,3.35
2023-05-25T11:32:14.778Z,3.70
2023-05-25T11:34:41.903Z,3.53
2023-05-25T11:37:10.459Z,3.78
2023-05-25T11:39:38.585Z,3.50
2023-05-25T11:42:07.234Z,3.78
2023-05-25T11:44:36.336Z,3.60
2023-05-25T11:47:08.535Z,3.38
2023-05-25T11:49:38.728Z,3.10
2023-05-25T11:52:08.774Z,3.42
2023-05-25T11:54:35.774Z,3.85
2023-05-25T11:57:02.951Z,3.65
2023-05-25T11:59:32.235Z,3.38
2023-05-25T12:02:03.367Z,3.60
2023-05-25T12:04:33.988Z,3.53
2023-05-25T12:07:04.263Z,3.42
2023-05-25T12:09:31.230Z,3.55
2023-05-25T12:11:57.716Z,3.38
2023-05-25T12:14:25.929Z,3.63
2023-05-25T12:16:52.561Z,3.65
2023-05-25T12:19:19.099Z,3.85
2023-05-25T12:21:45.811Z,3.58
2023-05-25T12:24:15.098Z,3.70
2023-05-25T12:26:51.613Z,3.67
2023-05-25T12:29:18.074Z,3.38
2023-05-25T12:31:44.494Z,3.58
2023-05-25T12:34:14.889Z,3.80
2023-05-25T12:36:46.690Z,3.83
2023-05-25T12:39:14.881Z,3.22
2023-05-25T12:41:46.178Z,3.45
2023-05-25T12:44:24.444Z,3.75
2023-05-25T12:46:55.061Z,3.28
2023-05-25T12:49:28.570Z,3.58
2023-05-25T12:51:55.702Z,3.38
2023-05-25T12:54:35.411Z,3.60
2023-05-25T12:57:03.941Z,3.83
2023-05-25T12:59:31.384Z,3.50
2023-05-25T13:01:57.937Z,4.00
2023-05-25T13:04:24.379Z,3.60
2023-05-25T13:06:52.420Z,3.53
2023-05-25T13:09:18.818Z,3.72
2023-05-25T13:11:45.285Z,3.25
2023-05-25T13:14:11.696Z,3.35
2023-05-25T13:16:38.203Z,3.88
2023-05-25T13:19:04.913Z,3.42
2023-05-25T13:21:32.784Z,3.63
2023-05-25T13:23:59.314Z,3.60
2023-05-25T13:26:26.289Z,4.03
2023-05-25T13:28:52.682Z,3.78
2023-05-25T13:31:19.570Z,4.03
2023-05-25T13:33:46.062Z,3.53
2023-05-25T13:36:12.605Z,3.30
2023-05-25T13:38:38.996Z,4.10
2023-05-25T13:41:05.380Z,3.72
2023-05-25T13:43:31.892Z,3.78
2023-05-25T13:46:01.122Z,3.30
2023-05-25T13:48:27.634Z,3.38
2023-05-25T13:50:54.245Z,3.88
2023-05-25T13:53:20.678Z,3.42
2023-05-25T13:55:47.576Z,3.95
2023-05-25T13:58:14.074Z,3.40
2023-05-25T14:00:40.479Z,4.07
2023-05-25T14:03:07.125Z,3.65
2023-05-25T14:05:33.953Z,3.92
2023-05-25T14:08:02.553Z,3.72
2023-05-25T14:10:28.955Z,3.50
2023-05-25T14:12:55.723Z,3.97
2023-05-25T14:15:22.131Z,4.45
2023-05-25T14:17:48.569Z,3.85
2023-05-25T14:20:20.778Z,3.38
2023-05-25T14:22:47.282Z,3.67
2023-05-25T14:25:13.937Z,3.88
2023-05-25T14:27:40.377Z,3.67
2023-05-25T14:30:07.434Z,3.25
2023-05-25T14:32:33.937Z,3.90
2023-05-25T14:35:00.352Z,3.60
2023-05-25T14:37:26.791Z,3.38
2023-05-25T14:39:53.217Z,3.83
2023-05-25T14:42:20.953Z,3.63
2023-05-25T14:44:47.336Z,3.72
2023-05-25T14:47:13.894Z,3.55
2023-05-25T14:49:40.533Z,3.95
2023-05-25T14:52:06.908Z,3.90
2023-05-25T14:54:33.306Z,3.35
2023-05-25T14:56:59.671Z,3.08
2023-05-25T14:59:26.032Z,4.07
2023-05-25T15:01:52.427Z,3.65
2023-05-25T15:04:19.051Z,3.75
2023-05-25T15:06:45.642Z,3.08
2023-05-25T15:09:13.459Z,3.38
2023-05-25T15:11:39.842Z,3.75
2023-05-25T15:14:06.265Z,4.43
2023-05-25T15:16:32.773Z,3.83
2023-05-25T15:18:59.259Z,4.75
2023-05-25T15:21:26.537Z,4.15
2023-05-25T15:23:52.973Z,4.30
2023-05-25T15:26:19.410Z,4.18
2023-05-25T15:28:45.916Z,3.78
2023-05-25T15:31:12.353Z,4.63
2023-05-25T15:33:53.848Z,3.88
2023-05-25T15:36:24.502Z,4.25
2023-05-25T15:38:50.934Z,4.63
2023-05-25T15:41:17.779Z,4.18
2023-05-25T15:43:52.772Z,4.50
2023-05-25T15:46:19.308Z,4.05
2023-05-25T15:48:45.771Z,4.03
2023-05-25T15:51:12.161Z,5.10
2023-05-25T15:53:38.586Z,4.40
2023-05-25T15:56:05.074Z,4.18
2023-05-25T15:58:34.162Z,4.07
2023-05-25T16:01:01.006Z,4.32
2023-05-25T16:03:27.749Z,4.13
2023-05-25T16:05:54.233Z,5.28
2023-05-25T16:08:20.703Z,4.68
2023-05-25T16:10:47.358Z,3.97
2023-05-25T16:13:13.862Z,3.83
2023-05-25T16:15:40.333Z,4.53
2023-05-25T16:18:07.793Z,4.40
2023-05-25T16:20:34.263Z,4.30
2023-05-25T16:23:00.683Z,3.70
2023-05-25T16:25:27.106Z,3.95
2023-05-25T16:27:54.036Z,4.22
2023-05-25T16:30:20.465Z,4.45
2023-05-25T16:32:46.909Z,4.90
2023-05-25T16:35:13.353Z,3.90
2023-05-25T16:37:39.735Z,4.63
2023-05-25T16:40:07.124Z,4.55
2023-05-25T16:42:33.499Z,4.80
2023-05-25T16:45:00.067Z,4.53
2023-05-25T16:47:26.444Z,4.55
2023-05-25T16:49:52.811Z,4.53
2023-05-25T16:52:19.270Z,5.10
2023-05-25T16:54:45.667Z,4.07
2023-05-25T16:57:12.157Z,4.88
2023-05-25T16:59:39.189Z,4.45
2023-05-25T17:02:05.631Z,4.35
2023-05-25T17:04:32.132Z,4.85
2023-05-25T17:06:58.575Z,5.35
2023-05-25T17:09:25.303Z,5.32
2023-05-25T17:11:53.725Z,4.63
2023-05-25T17:14:20.870Z,4.85
2023-05-25T17:16:47.503Z,4.82
2023-05-25T17:19:15.176Z,4.90
2023-05-25T17:21:43.046Z,4.60
2023-05-25T17:24:10.178Z,4.78
2023-05-25T17:26:36.563Z,4.65
2023-05-25T17:29:03.022Z,4.90
2023-05-25T17:31:29.540Z,4.50
2023-05-25T17:33:56.160Z,5.40
2023-05-25T17:36:23.475Z,4.57
2023-05-25T17:38:50.123Z,4.22
2023-05-25T17:41:16.891Z,4.95
2023-05-25T17:43:43.301Z,5.00
2023-05-25T17:46:09.844Z,4.18
2023-05-25T17:48:37.164Z,4.40
2023-05-25T17:51:03.650Z,4.00
2023-05-25T17:53:30.117Z,4.55
2023-05-25T17:55:56.549Z,4.57
2023-05-25T17:58:22.985Z,4.55
2023-05-25T18:00:49.537Z,4.88
2023-05-25T18:03:16.173Z,4.28
2023-05-25T18:05:43.584Z,4.35
2023-05-25T18:08:10.099Z,4.45
2023-05-25T18:10:36.658Z,5.00
2023-05-25T18:13:03.020Z,4.63
2023-05-25T18:15:29.942Z,3.97
2023-05-25T18:17:56.432Z,4.20
2023-05-25T18:20:22.971Z,5.05
2023-05-25T18:22:49.497Z,4.68
2023-05-25T18:25:15.962Z,4.72
2023-05-25T18:27:45.405Z,4.47
2023-05-25T18:30:12.280Z,4.15
2023-05-25T18:32:38.755Z,4.47
2023-05-25T18:35:05.617Z,3.63
2023-05-25T18:37:35.758Z,4.20
2023-05-25T18:40:05.122Z,4.10
2023-05-25T18:42:31.552Z,3.95
2023-05-25T18:44:58.186Z,3.60
2023-05-25T18:47:24.845Z,3.97
2023-05-25T18:49:51.698Z,3.90
2023-05-25T18:52:18.187Z,4.03
2023-05-25T18:54:44.662Z,4.28
2023-05-25T18:57:11.153Z,4.80
2023-05-25T18:59:37.550Z,3.67
2023-05-25T19:02:05.248Z,3.58
2023-05-25T19:04:33.970Z,3.42
2023-05-25T19:07:00.637Z,3.53
2023-05-25T19:09:27.696Z,4.18
2023-05-25T19:11:54.095Z,3.72
2023-05-25T19:14:20.656Z,4.50
2023-05-25T19:16:48.966Z,3.90
2023-05-25T19:19:15.966Z,4.00
2023-05-25T19:21:42.326Z,4.10
2023-05-25T19:24:10.494Z,4.22
2023-05-25T19:26:37.829Z,12.60
2023-05-25T19:29:04.533Z,4.50
2023-05-25T19:31:31.028Z,4.60
2023-05-25T19:33:57.471Z,3.85
2023-05-25T19:36:23.930Z,4.57
2023-05-25T19:38:50.329Z,5.93
2023-05-25T19:41:16.870Z,3.70
2023-05-25T19:43:43.261Z,5.82
2023-05-25T19:46:09.942Z,4.50
2023-05-25T19:48:39.818Z,5.63
2023-05-25T19:51:06.406Z,3.83
2023-05-25T19:53:32.838Z,3.67
2023-05-25T19:55:59.266Z,4.38
2023-05-25T19:58:25.731Z,3.90
2023-05-25T20:00:52.451Z,4.68
2023-05-25T20:03:20.802Z,3.92
2023-05-25T20:05:47.511Z,4.47
2023-05-25T20:08:14.111Z,4.28
2023-05-25T20:10:40.505Z,4.07
2023-05-25T20:13:07.292Z,3.83
2023-05-25T20:15:33.828Z,4.22
2023-05-25T20:18:01.925Z,4.70
2023-05-25T20:20:28.370Z,4.25
2023-05-25T20:22:54.818Z,4.63
2023-05-25T20:25:21.187Z,4.10
2023-05-25T20:27:47.575Z,4.43
2023-05-25T20:30:15.675Z,4.07
2023-05-25T20:32:42.583Z,4.00
2023-05-25T20:35:09.245Z,3.88
2023-05-25T20:37:36.112Z,4.55
2023-05-25T20:40:02.580Z,4.38
2023-05-25T20:42:29.013Z,4.50
2023-05-25T20:44:57.108Z,4.93
2023-05-25T20:47:23.694Z,4.30
2023-05-25T20:49:50.120Z,4.20
2023-05-25T20:52:16.668Z,4.63
2023-05-25T20:54:44.741Z,4.85
2023-05-25T20:57:11.705Z,4.90
2023-05-25T20:59:38.132Z,4.30
2023-05-25T21:02:04.792Z,4.78
2023-05-25T21:04:32.046Z,4.68
2023-05-25T21:06:58.575Z,5.07
2023-05-25T21:09:25.104Z,5.10
2023-05-25T21:11:51.521Z,4.82
2023-05-25T21:14:17.906Z,4.97
2023-05-25T21:16:44.441Z,5.13
2023-05-25T21:19:11.389Z,5.63
2023-05-25T21:21:37.897Z,5.18
2023-05-25T21:24:04.423Z,5.38
2023-05-25T21:26:31.066Z,5.60
2023-05-25T21:28:57.650Z,5.32
2023-05-25T21:31:24.664Z,5.40
2023-05-25T21:33:52.958Z,5.85
2023-05-25T21:36:19.981Z,5.32
2023-05-25T21:38:46.520Z,5.40
2023-05-25T21:41:12.949Z,6.05
2023-05-25T21:43:39.362Z,5.60
2023-05-25T21:46:05.869Z,5.78
2023-05-25T21:48:32.302Z,5.72
2023-05-25T21:50:58.734Z,6.50
2023-05-25T21:53:25.449Z,6.22
2023-05-25T21:55:52.884Z,6.63
2023-05-25T21:58:19.413Z,6.45
2023-05-25T22:00:45.934Z,6.72
2023-05-25T22:03:12.485Z,6.10
2023-05-25T22:05:38.933Z,7.25
2023-05-25T22:08:05.679Z,6.45
2023-05-25T22:10:32.194Z,5.93
2023-05-25T22:12:58.575Z,7.72
2023-05-25T22:15:25.365Z,6.90
2023-05-25T22:17:51.880Z,6.57
2023-05-25T22:20:18.589Z,7.57
2023-05-25T22:22:45.554Z,6.75
2023-05-25T22:25:12.166Z,6.93
2023-05-25T22:27:38.797Z,7.43
2023-05-25T22:30:06.737Z,6.43
2023-05-25T22:32:33.429Z,7.07
2023-05-25T22:34:59.840Z,7.05
2023-05-25T22:37:26.284Z,6.45
2023-05-25T22:39:52.643Z,6.47
2023-05-25T22:42:19.090Z,6.93
2023-05-25T22:44:45.594Z,6.82
2023-05-25T22:47:13.230Z,6.82
2023-05-25T22:49:42.480Z,6.80
2023-05-25T22:52:11.108Z,6.05
2023-05-25T22:54:37.559Z,6.82
2023-05-25T22:57:03.984Z,6.30
2023-05-25T22:59:30.464Z,6.25
2023-05-25T23:01:56.881Z,6.60
2023-05-25T23:04:23.294Z,6.07
2023-05-25T23:06:49.684Z,6.10
2023-05-25T23:09:16.182Z,5.53
2023-05-25T23:11:42.802Z,6.00
2023-05-25T23:14:10.569Z,5.97
2023-05-25T23:16:37.156Z,5.90
2023-05-25T23:19:03.666Z,5.53
2023-05-25T23:21:30.045Z,5.75
2023-05-25T23:23:56.488Z,5.65
2023-05-25T23:26:23.128Z,5.65
2023-05-25T23:28:49.953Z,5.97
2023-05-25T23:31:16.482Z,5.03
2023-05-25T23:33:42.978Z,5.60
2023-05-25T23:36:09.434Z,6.05
2023-05-25T23:38:36.116Z,5.88
2023-05-25T23:41:02.583Z,6.03
2023-05-25T23:43:28.977Z,4.97
2023-05-25T23:45:55.904Z,5.22
2023-05-25T23:48:22.316Z,5.10
2023-05-25T23:50:48.731Z,5.20
2023-05-25T23:53:15.159Z,5.35
2023-05-25T23:55:41.625Z,4.75
2023-05-25T23:58:08.234Z,5.53
